Milford Haven, United Kingdom
Current Conditions -  °F | °C
As of 12:50 PM on Monday 24 Nov 2014 (Local Time) from EGOP Reporting Station
Clear Clear  
Wind Chill:   Ceiling: Unl
Heat Index:   Visibility: 6mi
Dew Point:   Wind: 2mph
Humidity: 87%   Direction: 290°WNW
Pressure: 30.33"   Gusts: NA
Location:  51.71°N, 5.03°W
Report Text: EGOP 241250Z AUTO 29002KT 9999 // NCD 08/06 Q1027
Loading
Personal Weather Stations






























Interactive Weather Map New forecast layout! Learn more

10-Day Weather Forecast

Advertisements
Track Severe Weather on mobile